Terminal Aerodrome Forecast
Issued by NWS Sterling, VA

Current Version | Previous Version | Graphics & Text | Print | Product List | Glossary On
Versions: 1 2 3 4 5 6 7 8 9 10 11 12 13 14 15 16 17 18 19 20 21 22 23 24 25 26 27 28 29 30 31 32
000
FTUS41 KLWX 191527 AAB
TAFDCA
TAF AMD
KDCA 191527Z 1915/2012 09013G20KT P6SM OVC200
     FM192200 09012G22KT P6SM -RA OVC090
     FM200000 09013G25KT P6SM -RA OVC020
     FM200100 09015G23KT 5SM RA OVC020
     FM200300 09017G25KT 5SM RA OVC010
     FM200500 11016G26KT 3SM +RA OVC008 WS020/13040KT
     FM201100 19009KT 4SM -RA OVC003=

USA.gov is the U.S. government's official web portal to all federal, state and local government web resources and services.